sensor_id;sensor_type;location;lat;lon;timestamp;P1;durP1;ratioP1;P2;durP2;ratioP2
80241;SDS011;69556;45.004;7.532;2023-09-18T07:29:05;24.90;;;14.60;;
80241;SDS011;69556;45.004;7.532;2023-09-18T07:31:31;23.03;;;14.93;;
80241;SDS011;69556;45.004;7.532;2023-09-18T07:33:56;20.42;;;12.60;;
80241;SDS011;69556;45.004;7.532;2023-09-18T07:36:21;17.97;;;12.67;;
80241;SDS011;69556;45.004;7.532;2023-09-18T07:38:47;18.15;;;12.30;;
80241;SDS011;69556;45.004;7.532;2023-09-18T07:41:12;17.33;;;11.27;;
80241;SDS011;69556;45.004;7.532;2023-09-18T07:46:06;16.90;;;11.73;;
80241;SDS011;69556;45.004;7.532;2023-09-18T07:48:32;14.90;;;10.95;;
80241;SDS011;69556;45.004;7.532;2023-09-18T07:50:57;22.17;;;11.23;;
80241;SDS011;69556;45.004;7.532;2023-09-18T07:53:23;16.30;;;11.00;;
80241;SDS011;69556;45.004;7.532;2023-09-18T07:55:54;18.97;;;10.87;;
80241;SDS011;69556;45.004;7.532;2023-09-18T07:58:22;14.60;;;8.98;;
80241;SDS011;69556;45.004;7.532;2023-09-18T08:00:47;13.27;;;9.40;;
80241;SDS011;69556;45.004;7.532;2023-09-18T08:03:13;18.50;;;9.95;;
80241;SDS011;69556;45.004;7.532;2023-09-18T08:05:39;20.23;;;11.00;;
80241;SDS011;69556;45.004;7.532;2023-09-18T08:08:04;13.95;;;9.35;;
80241;SDS011;69556;45.004;7.532;2023-09-18T08:10:30;16.35;;;8.73;;
80241;SDS011;69556;45.004;7.532;2023-09-18T08:12:56;15.18;;;10.25;;
80241;SDS011;69556;45.004;7.532;2023-09-18T08:15:21;15.50;;;9.30;;
80241;SDS011;69556;45.004;7.532;2023-09-18T08:17:47;23.42;;;10.10;;
80241;SDS011;69556;45.004;7.532;2023-09-18T08:20:14;17.20;;;10.05;;
80241;SDS011;69556;45.004;7.532;2023-09-18T08:22:40;18.58;;;10.25;;
80241;SDS011;69556;45.004;7.532;2023-09-18T08:25:06;16.25;;;9.63;;
80241;SDS011;69556;45.004;7.532;2023-09-18T08:27:36;13.85;;;9.63;;
80241;SDS011;69556;45.004;7.532;2023-09-18T08:30:06;13.77;;;9.40;;
80241;SDS011;69556;45.004;7.532;2023-09-18T08:32:32;15.05;;;9.60;;
80241;SDS011;69556;45.004;7.532;2023-09-18T08:34:59;19.25;;;10.80;;
80241;SDS011;69556;45.004;7.532;2023-09-18T08:37:26;15.30;;;10.23;;
80241;SDS011;69556;45.004;7.532;2023-09-18T08:39:52;15.57;;;10.15;;
80241;SDS011;69556;45.004;7.532;2023-09-18T08:42:17;15.27;;;9.23;;
80241;SDS011;69556;45.004;7.532;2023-09-18T08:44:45;18.48;;;10.38;;
80241;SDS011;69556;45.004;7.532;2023-09-18T08:47:14;15.98;;;10.32;;
80241;SDS011;69556;45.004;7.532;2023-09-18T08:49:40;16.40;;;9.85;;
80241;SDS011;69556;45.004;7.532;2023-09-18T08:52:06;16.13;;;8.80;;
80241;SDS011;69556;45.004;7.532;2023-09-18T08:54:33;15.02;;;9.73;;
80241;SDS011;69556;45.004;7.532;2023-09-18T08:56:58;16.00;;;9.75;;
80241;SDS011;69556;45.004;7.532;2023-09-18T08:59:24;16.15;;;10.63;;
80241;SDS011;69556;45.004;7.532;2023-09-18T09:01:51;15.60;;;9.60;;
80241;SDS011;69556;45.004;7.532;2023-09-18T09:04:17;16.80;;;9.50;;
80241;SDS011;69556;45.004;7.532;2023-09-18T09:06:42;18.48;;;10.30;;
80241;SDS011;69556;45.004;7.532;2023-09-18T09:09:11;16.50;;;9.18;;
80241;SDS011;69556;45.004;7.532;2023-09-18T09:11:38;17.48;;;10.40;;
80241;SDS011;69556;45.004;7.532;2023-09-18T09:14:13;17.23;;;10.48;;
80241;SDS011;69556;45.004;7.532;2023-09-18T09:16:53;18.05;;;10.40;;
80241;SDS011;69556;45.004;7.532;2023-09-18T09:21:56;14.98;;;10.52;;
80241;SDS011;69556;45.004;7.532;2023-09-18T09:27:04;16.55;;;10.93;;
80241;SDS011;69556;45.004;7.532;2023-09-18T09:29:29;17.20;;;11.63;;
80241;SDS011;69556;45.004;7.532;2023-09-18T09:31:56;16.23;;;11.05;;
80241;SDS011;69556;45.004;7.532;2023-09-18T09:34:36;20.67;;;12.93;;
80241;SDS011;69556;45.004;7.532;2023-09-18T09:37:02;16.83;;;11.50;;
80241;SDS011;69556;45.004;7.532;2023-09-18T09:39:29;21.58;;;12.18;;
80241;SDS011;69556;45.004;7.532;2023-09-18T09:41:55;19.38;;;12.88;;
80241;SDS011;69556;45.004;7.532;2023-09-18T09:44:28;20.98;;;13.10;;
80241;SDS011;69556;45.004;7.532;2023-09-18T09:46:56;18.15;;;12.35;;
80241;SDS011;69556;45.004;7.532;2023-09-18T09:49:24;26.30;;;14.55;;
80241;SDS011;69556;45.004;7.532;2023-09-18T09:51:53;29.92;;;14.98;;
80241;SDS011;69556;45.004;7.532;2023-09-18T09:54:31;24.70;;;14.48;;
80241;SDS011;69556;45.004;7.532;2023-09-18T09:57:02;31.23;;;14.85;;
80241;SDS011;69556;45.004;7.532;2023-09-18T09:59:28;19.98;;;13.85;;
80241;SDS011;69556;45.004;7.532;2023-09-18T10:01:54;25.20;;;13.77;;
80241;SDS011;69556;45.004;7.532;2023-09-18T10:04:21;21.60;;;13.48;;
80241;SDS011;69556;45.004;7.532;2023-09-18T10:06:56;17.42;;;12.20;;
80241;SDS011;69556;45.004;7.532;2023-09-18T10:09:27;21.98;;;13.70;;
80241;SDS011;69556;45.004;7.532;2023-09-18T10:11:54;19.95;;;13.60;;
80241;SDS011;69556;45.004;7.532;2023-09-18T10:14:32;24.40;;;14.73;;
80241;SDS011;69556;45.004;7.532;2023-09-18T10:17:23;24.65;;;14.00;;
80241;SDS011;69556;45.004;7.532;2023-09-18T10:22:42;18.50;;;12.88;;
80241;SDS011;69556;45.004;7.532;2023-09-18T10:27:44;18.55;;;13.70;;
80241;SDS011;69556;45.004;7.532;2023-09-18T10:30:14;17.15;;;13.00;;
80241;SDS011;69556;45.004;7.532;2023-09-18T10:32:43;19.30;;;12.55;;
80241;SDS011;69556;45.004;7.532;2023-09-18T10:35:11;16.90;;;10.73;;
80241;SDS011;69556;45.004;7.532;2023-09-18T10:37:41;14.48;;;10.93;;
80241;SDS011;69556;45.004;7.532;2023-09-18T10:40:09;19.60;;;11.98;;
80241;SDS011;69556;45.004;7.532;2023-09-18T10:42:35;16.42;;;11.10;;
80241;SDS011;69556;45.004;7.532;2023-09-18T10:45:04;17.20;;;10.38;;
80241;SDS011;69556;45.004;7.532;2023-09-18T10:47:30;19.13;;;10.90;;
80241;SDS011;69556;45.004;7.532;2023-09-18T10:49:57;18.40;;;10.73;;
80241;SDS011;69556;45.004;7.532;2023-09-18T10:52:22;15.43;;;10.73;;
80241;SDS011;69556;45.004;7.532;2023-09-18T10:54:47;15.68;;;9.88;;
80241;SDS011;69556;45.004;7.532;2023-09-18T10:57:13;15.63;;;11.15;;
80241;SDS011;69556;45.004;7.532;2023-09-18T10:59:45;18.08;;;11.38;;
80241;SDS011;69556;45.004;7.532;2023-09-18T11:02:13;21.45;;;10.35;;
80241;SDS011;69556;45.004;7.532;2023-09-18T11:04:41;19.17;;;9.88;;
80241;SDS011;69556;45.004;7.532;2023-09-18T11:07:07;24.60;;;12.77;;
80241;SDS011;69556;45.004;7.532;2023-09-18T11:09:41;27.08;;;11.13;;
80241;SDS011;69556;45.004;7.532;2023-09-18T11:12:08;22.23;;;11.70;;
80241;SDS011;69556;45.004;7.532;2023-09-18T11:17:35;16.30;;;10.07;;
80241;SDS011;69556;45.004;7.532;2023-09-18T11:22:34;22.38;;;10.80;;
80241;SDS011;69556;45.004;7.532;2023-09-18T11:28:22;19.17;;;10.55;;
80241;SDS011;69556;45.004;7.532;2023-09-18T11:30:49;17.70;;;10.55;;
80241;SDS011;69556;45.004;7.532;2023-09-18T11:35:54;17.27;;;9.80;;
80241;SDS011;69556;45.004;7.532;2023-09-18T11:38:21;17.70;;;9.93;;
80241;SDS011;69556;45.004;7.532;2023-09-18T11:40:48;17.65;;;10.13;;
80241;SDS011;69556;45.004;7.532;2023-09-18T11:43:24;14.77;;;9.80;;
80241;SDS011;69556;45.004;7.532;2023-09-18T11:45:52;17.13;;;9.77;;
80241;SDS011;69556;45.004;7.532;2023-09-18T11:48:20;12.25;;;8.82;;
80241;SDS011;69556;45.004;7.532;2023-09-18T11:50:46;18.42;;;9.93;;
80241;SDS011;69556;45.004;7.532;2023-09-18T11:53:15;17.95;;;10.50;;
80241;SDS011;69556;45.004;7.532;2023-09-18T11:55:43;17.55;;;10.02;;
80241;SDS011;69556;45.004;7.532;2023-09-18T11:58:08;19.05;;;9.85;;
80241;SDS011;69556;45.004;7.532;2023-09-18T12:00:35;16.63;;;8.95;;
80241;SDS011;69556;45.004;7.532;2023-09-18T12:03:14;21.17;;;9.75;;
80241;SDS011;69556;45.004;7.532;2023-09-18T12:05:53;13.90;;;8.75;;
80241;SDS011;69556;45.004;7.532;2023-09-18T12:08:19;18.08;;;10.13;;
80241;SDS011;69556;45.004;7.532;2023-09-18T12:10:44;15.57;;;8.88;;
80241;SDS011;69556;45.004;7.532;2023-09-18T12:13:14;17.20;;;8.82;;
80241;SDS011;69556;45.004;7.532;2023-09-18T12:15:40;23.85;;;9.98;;
80241;SDS011;69556;45.004;7.532;2023-09-18T12:18:07;16.65;;;9.25;;
80241;SDS011;69556;45.004;7.532;2023-09-18T12:20:33;19.23;;;9.30;;
80241;SDS011;69556;45.004;7.532;2023-09-18T12:22:59;13.43;;;8.57;;
80241;SDS011;69556;45.004;7.532;2023-09-18T12:25:25;13.93;;;8.80;;
80241;SDS011;69556;45.004;7.532;2023-09-18T12:27:51;17.48;;;8.20;;
80241;SDS011;69556;45.004;7.532;2023-09-18T12:30:18;13.63;;;8.15;;
80241;SDS011;69556;45.004;7.532;2023-09-18T12:32:45;13.15;;;7.85;;
80241;SDS011;69556;45.004;7.532;2023-09-18T12:35:14;15.32;;;8.48;;
80241;SDS011;69556;45.004;7.532;2023-09-18T12:37:40;18.80;;;8.45;;
80241;SDS011;69556;45.004;7.532;2023-09-18T12:40:07;21.85;;;8.55;;
80241;SDS011;69556;45.004;7.532;2023-09-18T12:42:45;17.50;;;9.10;;
80241;SDS011;69556;45.004;7.532;2023-09-18T12:45:11;19.80;;;10.20;;
80241;SDS011;69556;45.004;7.532;2023-09-18T12:47:37;18.05;;;9.20;;
80241;SDS011;69556;45.004;7.532;2023-09-18T12:50:04;23.60;;;9.80;;
80241;SDS011;69556;45.004;7.532;2023-09-18T12:54:58;18.23;;;7.97;;
80241;SDS011;69556;45.004;7.532;2023-09-18T12:57:24;15.35;;;9.18;;
80241;SDS011;69556;45.004;7.532;2023-09-18T12:59:50;15.45;;;8.77;;
80241;SDS011;69556;45.004;7.532;2023-09-18T13:02:18;15.90;;;8.98;;
80241;SDS011;69556;45.004;7.532;2023-09-18T13:04:53;16.73;;;9.98;;
80241;SDS011;69556;45.004;7.532;2023-09-18T13:07:19;19.67;;;9.57;;
80241;SDS011;69556;45.004;7.532;2023-09-18T13:10:03;14.30;;;8.50;;
80241;SDS011;69556;45.004;7.532;2023-09-18T13:12:46;14.35;;;8.75;;
80241;SDS011;69556;45.004;7.532;2023-09-18T13:17:53;17.85;;;9.20;;
80241;SDS011;69556;45.004;7.532;2023-09-18T13:20:23;17.20;;;10.65;;
80241;SDS011;69556;45.004;7.532;2023-09-18T13:22:52;19.55;;;10.38;;
80241;SDS011;69556;45.004;7.532;2023-09-18T13:25:28;20.20;;;9.82;;
80241;SDS011;69556;45.004;7.532;2023-09-18T13:27:59;17.70;;;12.13;;
80241;SDS011;69556;45.004;7.532;2023-09-18T13:30:26;19.90;;;11.18;;
80241;SDS011;69556;45.004;7.532;2023-09-18T13:33:00;25.65;;;11.85;;
80241;SDS011;69556;45.004;7.532;2023-09-18T13:35:27;22.75;;;12.88;;
80241;SDS011;69556;45.004;7.532;2023-09-18T13:37:53;22.17;;;13.50;;
80241;SDS011;69556;45.004;7.532;2023-09-18T13:40:18;17.23;;;12.00;;
80241;SDS011;69556;45.004;7.532;2023-09-18T13:42:43;23.93;;;12.23;;
80241;SDS011;69556;45.004;7.532;2023-09-18T13:45:09;28.20;;;12.83;;
80241;SDS011;69556;45.004;7.532;2023-09-18T13:47:35;20.90;;;13.57;;
80241;SDS011;69556;45.004;7.532;2023-09-18T13:50:02;24.00;;;13.73;;
80241;SDS011;69556;45.004;7.532;2023-09-18T13:52:29;22.75;;;13.77;;
80241;SDS011;69556;45.004;7.532;2023-09-18T13:54:56;24.63;;;14.00;;
80241;SDS011;69556;45.004;7.532;2023-09-18T13:57:21;29.90;;;12.93;;
80241;SDS011;69556;45.004;7.532;2023-09-18T13:59:48;23.70;;;14.30;;
80241;SDS011;69556;45.004;7.532;2023-09-18T14:02:14;20.60;;;12.93;;
